sensor_id;sensor_type;location;lat;lon;timestamp;temperature;humidity
5735;DHT22;2892;47.592;7.688;2024-01-25T00:01:49;10.00;99.90
5735;DHT22;2892;47.592;7.688;2024-01-25T00:04:15;10.00;99.90
5735;DHT22;2892;47.592;7.688;2024-01-25T00:06:40;10.00;99.90
5735;DHT22;2892;47.592;7.688;2024-01-25T00:09:06;10.10;99.90
5735;DHT22;2892;47.592;7.688;2024-01-25T00:11:31;10.10;99.90
5735;DHT22;2892;47.592;7.688;2024-01-25T00:13:57;10.00;99.90
5735;DHT22;2892;47.592;7.688;2024-01-25T00:16:23;10.00;99.90
5735;DHT22;2892;47.592;7.688;2024-01-25T00:18:48;10.00;99.90
5735;DHT22;2892;47.592;7.688;2024-01-25T00:21:14;10.00;99.90
5735;DHT22;2892;47.592;7.688;2024-01-25T00:23:39;10.10;99.90
5735;DHT22;2892;47.592;7.688;2024-01-25T00:26:05;10.00;99.90
5735;DHT22;2892;47.592;7.688;2024-01-25T00:28:30;10.10;99.90
5735;DHT22;2892;47.592;7.688;2024-01-25T00:30:56;10.10;99.90
5735;DHT22;2892;47.592;7.688;2024-01-25T00:33:21;10.10;99.90
5735;DHT22;2892;47.592;7.688;2024-01-25T00:35:47;10.10;99.90
5735;DHT22;2892;47.592;7.688;2024-01-25T00:38:13;10.10;99.90
5735;DHT22;2892;47.592;7.688;2024-01-25T00:40:39;10.10;99.90
5735;DHT22;2892;47.592;7.688;2024-01-25T00:43:05;10.10;99.90
5735;DHT22;2892;47.592;7.688;2024-01-25T00:45:31;10.20;99.90
5735;DHT22;2892;47.592;7.688;2024-01-25T00:47:57;10.20;99.90
5735;DHT22;2892;47.592;7.688;2024-01-25T00:50:22;10.10;99.90
5735;DHT22;2892;47.592;7.688;2024-01-25T00:52:48;10.10;99.90
5735;DHT22;2892;47.592;7.688;2024-01-25T00:55:15;10.10;99.90
5735;DHT22;2892;47.592;7.688;2024-01-25T00:57:40;10.10;99.90
5735;DHT22;2892;47.592;7.688;2024-01-25T01:00:06;10.10;99.90
5735;DHT22;2892;47.592;7.688;2024-01-25T01:02:37;9.80;99.90
5735;DHT22;2892;47.592;7.688;2024-01-25T01:05:04;9.90;99.90
5735;DHT22;2892;47.592;7.688;2024-01-25T01:07:30;9.90;99.90
5735;DHT22;2892;47.592;7.688;2024-01-25T01:09:56;9.80;99.90
5735;DHT22;2892;47.592;7.688;2024-01-25T01:12:21;9.70;99.90
5735;DHT22;2892;47.592;7.688;2024-01-25T01:14:47;9.70;99.90
5735;DHT22;2892;47.592;7.688;2024-01-25T01:17:12;9.80;99.90
5735;DHT22;2892;47.592;7.688;2024-01-25T01:19:38;9.70;99.90
5735;DHT22;2892;47.592;7.688;2024-01-25T01:22:03;9.60;99.90
5735;DHT22;2892;47.592;7.688;2024-01-25T01:24:29;9.80;99.90
5735;DHT22;2892;47.592;7.688;2024-01-25T01:26:54;9.90;99.90
5735;DHT22;2892;47.592;7.688;2024-01-25T01:29:20;9.90;99.90
5735;DHT22;2892;47.592;7.688;2024-01-25T01:31:45;9.90;99.90
5735;DHT22;2892;47.592;7.688;2024-01-25T01:34:11;9.90;99.90
5735;DHT22;2892;47.592;7.688;2024-01-25T01:36:36;9.80;99.90
5735;DHT22;2892;47.592;7.688;2024-01-25T01:39:02;10.10;99.90
5735;DHT22;2892;47.592;7.688;2024-01-25T01:41:28;10.70;99.90
5735;DHT22;2892;47.592;7.688;2024-01-25T01:43:54;10.60;99.90
5735;DHT22;2892;47.592;7.688;2024-01-25T01:46:33;10.50;99.90
5735;DHT22;2892;47.592;7.688;2024-01-25T01:48:58;10.40;99.90
5735;DHT22;2892;47.592;7.688;2024-01-25T01:51:24;10.30;99.90
5735;DHT22;2892;47.592;7.688;2024-01-25T01:53:50;10.40;99.90
5735;DHT22;2892;47.592;7.688;2024-01-25T01:56:16;10.40;99.90
5735;DHT22;2892;47.592;7.688;2024-01-25T01:58:42;10.40;99.90
5735;DHT22;2892;47.592;7.688;2024-01-25T02:01:08;10.40;99.90
5735;DHT22;2892;47.592;7.688;2024-01-25T02:03:34;10.40;99.90
5735;DHT22;2892;47.592;7.688;2024-01-25T02:06:00;10.30;99.90
5735;DHT22;2892;47.592;7.688;2024-01-25T02:08:26;10.40;99.90
5735;DHT22;2892;47.592;7.688;2024-01-25T02:10:51;10.30;99.90
5735;DHT22;2892;47.592;7.688;2024-01-25T02:13:17;10.40;99.90
5735;DHT22;2892;47.592;7.688;2024-01-25T02:15:42;10.40;99.90
5735;DHT22;2892;47.592;7.688;2024-01-25T02:18:08;10.40;99.90
5735;DHT22;2892;47.592;7.688;2024-01-25T02:20:34;10.40;99.90
5735;DHT22;2892;47.592;7.688;2024-01-25T02:23:00;10.40;99.90
5735;DHT22;2892;47.592;7.688;2024-01-25T02:25:25;10.40;99.90
5735;DHT22;2892;47.592;7.688;2024-01-25T02:27:50;10.40;99.90
5735;DHT22;2892;47.592;7.688;2024-01-25T02:30:16;10.40;99.90
5735;DHT22;2892;47.592;7.688;2024-01-25T02:32:43;10.40;99.90
5735;DHT22;2892;47.592;7.688;2024-01-25T02:35:09;10.50;99.90
5735;DHT22;2892;47.592;7.688;2024-01-25T02:37:34;10.50;99.90
5735;DHT22;2892;47.592;7.688;2024-01-25T02:40:00;10.50;99.90
5735;DHT22;2892;47.592;7.688;2024-01-25T02:42:25;10.50;99.90
5735;DHT22;2892;47.592;7.688;2024-01-25T02:44:51;10.50;99.90
5735;DHT22;2892;47.592;7.688;2024-01-25T02:47:16;10.40;99.90
5735;DHT22;2892;47.592;7.688;2024-01-25T02:49:42;10.50;99.90
5735;DHT22;2892;47.592;7.688;2024-01-25T02:52:07;10.40;99.90
5735;DHT22;2892;47.592;7.688;2024-01-25T02:54:36;10.50;99.90
5735;DHT22;2892;47.592;7.688;2024-01-25T02:57:01;10.40;99.90
5735;DHT22;2892;47.592;7.688;2024-01-25T02:59:27;10.40;99.90
5735;DHT22;2892;47.592;7.688;2024-01-25T03:01:54;10.50;99.90
5735;DHT22;2892;47.592;7.688;2024-01-25T03:04:19;10.50;99.90
5735;DHT22;2892;47.592;7.688;2024-01-25T03:06:45;10.50;99.90
5735;DHT22;2892;47.592;7.688;2024-01-25T03:09:10;10.50;99.90
5735;DHT22;2892;47.592;7.688;2024-01-25T03:11:36;10.50;99.90
5735;DHT22;2892;47.592;7.688;2024-01-25T03:14:01;10.50;99.90
5735;DHT22;2892;47.592;7.688;2024-01-25T03:16:27;10.50;99.90
5735;DHT22;2892;47.592;7.688;2024-01-25T03:18:52;10.50;99.90
5735;DHT22;2892;47.592;7.688;2024-01-25T03:21:18;10.50;99.90
5735;DHT22;2892;47.592;7.688;2024-01-25T03:23:49;10.50;99.90
5735;DHT22;2892;47.592;7.688;2024-01-25T03:26:14;10.50;99.90
5735;DHT22;2892;47.592;7.688;2024-01-25T03:28:40;10.60;99.90
5735;DHT22;2892;47.592;7.688;2024-01-25T03:31:06;10.60;99.90
5735;DHT22;2892;47.592;7.688;2024-01-25T03:33:31;10.60;99.90
5735;DHT22;2892;47.592;7.688;2024-01-25T03:35:57;10.60;99.90
5735;DHT22;2892;47.592;7.688;2024-01-25T03:38:23;10.60;99.90
5735;DHT22;2892;47.592;7.688;2024-01-25T03:40:48;10.60;99.90
5735;DHT22;2892;47.592;7.688;2024-01-25T03:43:14;10.50;99.90
5735;DHT22;2892;47.592;7.688;2024-01-25T03:45:39;10.50;99.90
5735;DHT22;2892;47.592;7.688;2024-01-25T03:48:05;10.50;99.90
5735;DHT22;2892;47.592;7.688;2024-01-25T03:50:30;10.50;99.90
5735;DHT22;2892;47.592;7.688;2024-01-25T03:52:56;10.60;99.90
5735;DHT22;2892;47.592;7.688;2024-01-25T03:55:21;10.50;99.90
5735;DHT22;2892;47.592;7.688;2024-01-25T03:57:46;10.50;99.90
5735;DHT22;2892;47.592;7.688;2024-01-25T04:00:12;10.60;99.90
5735;DHT22;2892;47.592;7.688;2024-01-25T04:02:38;10.60;99.90
5735;DHT22;2892;47.592;7.688;2024-01-25T04:05:04;10.50;99.90
5735;DHT22;2892;47.592;7.688;2024-01-25T04:07:30;10.50;99.90
5735;DHT22;2892;47.592;7.688;2024-01-25T04:09:55;10.50;99.90
5735;DHT22;2892;47.592;7.688;2024-01-25T04:12:21;10.50;99.90
5735;DHT22;2892;47.592;7.688;2024-01-25T04:14:46;10.50;99.90
5735;DHT22;2892;47.592;7.688;2024-01-25T04:17:12;10.50;99.90
5735;DHT22;2892;47.592;7.688;2024-01-25T04:19:37;10.50;99.90
5735;DHT22;2892;47.592;7.688;2024-01-25T04:22:03;10.40;99.90
5735;DHT22;2892;47.592;7.688;2024-01-25T04:24:28;10.40;99.90
5735;DHT22;2892;47.592;7.688;2024-01-25T04:26:54;10.40;99.90
5735;DHT22;2892;47.592;7.688;2024-01-25T04:29:19;10.40;99.90
5735;DHT22;2892;47.592;7.688;2024-01-25T04:31:45;10.40;99.90
5735;DHT22;2892;47.592;7.688;2024-01-25T04:34:13;10.30;99.90
5735;DHT22;2892;47.592;7.688;2024-01-25T04:36:38;10.30;99.90
5735;DHT22;2892;47.592;7.688;2024-01-25T04:39:04;10.30;99.90
5735;DHT22;2892;47.592;7.688;2024-01-25T04:41:29;10.20;99.90
5735;DHT22;2892;47.592;7.688;2024-01-25T04:43:55;10.20;99.90
5735;DHT22;2892;47.592;7.688;2024-01-25T04:46:20;10.20;99.90
5735;DHT22;2892;47.592;7.688;2024-01-25T04:48:46;10.20;99.90
5735;DHT22;2892;47.592;7.688;2024-01-25T04:51:16;10.20;99.90
5735;DHT22;2892;47.592;7.688;2024-01-25T04:53:42;10.20;99.90
5735;DHT22;2892;47.592;7.688;2024-01-25T04:56:07;10.20;99.90
5735;DHT22;2892;47.592;7.688;2024-01-25T04:58:33;10.20;99.90
5735;DHT22;2892;47.592;7.688;2024-01-25T05:00:58;10.20;99.90
5735;DHT22;2892;47.592;7.688;2024-01-25T05:03:24;10.20;99.90
5735;DHT22;2892;47.592;7.688;2024-01-25T05:05:49;10.20;99.90
5735;DHT22;2892;47.592;7.688;2024-01-25T05:08:15;10.20;99.90
5735;DHT22;2892;47.592;7.688;2024-01-25T05:10:40;10.20;99.90
5735;DHT22;2892;47.592;7.688;2024-01-25T05:13:06;10.20;99.90
5735;DHT22;2892;47.592;7.688;2024-01-25T05:15:32;10.20;99.90
5735;DHT22;2892;47.592;7.688;2024-01-25T05:17:57;10.20;99.90
5735;DHT22;2892;47.592;7.688;2024-01-25T05:20:23;10.20;99.90
5735;DHT22;2892;47.592;7.688;2024-01-25T05:22:48;10.20;99.90
5735;DHT22;2892;47.592;7.688;2024-01-25T05:25:14;10.20;99.90
5735;DHT22;2892;47.592;7.688;2024-01-25T05:27:39;10.20;99.90
5735;DHT22;2892;47.592;7.688;2024-01-25T05:30:05;10.20;99.90
5735;DHT22;2892;47.592;7.688;2024-01-25T05:32:31;10.20;99.90
5735;DHT22;2892;47.592;7.688;2024-01-25T05:34:56;10.20;99.90
5735;DHT22;2892;47.592;7.688;2024-01-25T05:37:22;10.20;99.90
5735;DHT22;2892;47.592;7.688;2024-01-25T05:39:47;10.30;99.90
5735;DHT22;2892;47.592;7.688;2024-01-25T05:42:14;10.20;99.90
5735;DHT22;2892;47.592;7.688;2024-01-25T05:44:39;10.20;99.90
5735;DHT22;2892;47.592;7.688;2024-01-25T05:47:05;10.20;99.90
5735;DHT22;2892;47.592;7.688;2024-01-25T05:49:30;10.20;99.90
5735;DHT22;2892;47.592;7.688;2024-01-25T05:51:56;10.20;99.90
5735;DHT22;2892;47.592;7.688;2024-01-25T05:54:21;10.20;99.90
5735;DHT22;2892;47.592;7.688;2024-01-25T05:56:46;10.20;99.90
5735;DHT22;2892;47.592;7.688;2024-01-25T05:59:12;10.20;99.90
5735;DHT22;2892;47.592;7.688;2024-01-25T06:01:37;10.20;99.90
5735;DHT22;2892;47.592;7.688;2024-01-25T06:04:03;10.20;99.90
5735;DHT22;2892;47.592;7.688;2024-01-25T06:06:28;10.20;99.90
5735;DHT22;2892;47.592;7.688;2024-01-25T06:08:54;10.20;99.90
5735;DHT22;2892;47.592;7.688;2024-01-25T06:11:19;10.20;99.90
5735;DHT22;2892;47.592;7.688;2024-01-25T06:13:45;10.20;99.90
5735;DHT22;2892;47.592;7.688;2024-01-25T06:16:10;10.20;99.90
5735;DHT22;2892;47.592;7.688;2024-01-25T06:18:36;10.20;99.90
5735;DHT22;2892;47.592;7.688;2024-01-25T06:21:01;10.20;99.90
5735;DHT22;2892;47.592;7.688;2024-01-25T06:23:27;10.20;99.90
5735;DHT22;2892;47.592;7.688;2024-01-25T06:25:52;10.20;99.90
5735;DHT22;2892;47.592;7.688;2024-01-25T06:28:18;10.10;99.90
5735;DHT22;2892;47.592;7.688;2024-01-25T06:30:43;10.20;99.90
5735;DHT22;2892;47.592;7.688;2024-01-25T06:33:09;10.10;99.90
5735;DHT22;2892;47.592;7.688;2024-01-25T06:35:34;9.90;99.90
5735;DHT22;2892;47.592;7.688;2024-01-25T06:38:00;9.90;99.90
5735;DHT22;2892;47.592;7.688;2024-01-25T06:40:25;9.80;99.90
5735;DHT22;2892;47.592;7.688;2024-01-25T06:42:51;9.80;99.90
5735;DHT22;2892;47.592;7.688;2024-01-25T06:45:16;9.80;99.90
5735;DHT22;2892;47.592;7.688;2024-01-25T06:47:42;9.80;99.90
5735;DHT22;2892;47.592;7.688;2024-01-25T06:50:07;9.80;99.90
5735;DHT22;2892;47.592;7.688;2024-01-25T06:52:33;9.70;99.90
5735;DHT22;2892;47.592;7.688;2024-01-25T06:54:59;9.70;99.90
5735;DHT22;2892;47.592;7.688;2024-01-25T06:57:24;9.70;99.90
5735;DHT22;2892;47.592;7.688;2024-01-25T06:59:50;9.70;99.90
5735;DHT22;2892;47.592;7.688;2024-01-25T07:02:15;9.70;99.90
5735;DHT22;2892;47.592;7.688;2024-01-25T07:04:41;9.70;99.90
5735;DHT22;2892;47.592;7.688;2024-01-25T07:07:06;9.70;99.90
5735;DHT22;2892;47.592;7.688;2024-01-25T07:09:32;9.70;99.90
5735;DHT22;2892;47.592;7.688;2024-01-25T07:11:57;9.70;99.90
5735;DHT22;2892;47.592;7.688;2024-01-25T07:14:23;9.60;99.90
5735;DHT22;2892;47.592;7.688;2024-01-25T07:16:48;9.60;99.90
5735;DHT22;2892;47.592;7.688;2024-01-25T07:19:14;9.60;99.90
5735;DHT22;2892;47.592;7.688;2024-01-25T07:21:39;9.60;99.90
5735;DHT22;2892;47.592;7.688;2024-01-25T07:24:05;9.60;99.90
5735;DHT22;2892;47.592;7.688;2024-01-25T07:26:31;9.60;99.90
5735;DHT22;2892;47.592;7.688;2024-01-25T07:28:56;9.60;99.90
5735;DHT22;2892;47.592;7.688;2024-01-25T07:31:22;9.60;99.90
5735;DHT22;2892;47.592;7.688;2024-01-25T07:33:47;9.60;99.90
5735;DHT22;2892;47.592;7.688;2024-01-25T07:36:12;9.60;99.90
5735;DHT22;2892;47.592;7.688;2024-01-25T07:38:38;9.60;99.90
5735;DHT22;2892;47.592;7.688;2024-01-25T07:41:05;9.60;99.90
5735;DHT22;2892;47.592;7.688;2024-01-25T07:43:30;9.50;99.90
5735;DHT22;2892;47.592;7.688;2024-01-25T07:45:56;9.50;99.90
5735;DHT22;2892;47.592;7.688;2024-01-25T07:48:21;9.60;99.90
5735;DHT22;2892;47.592;7.688;2024-01-25T07:50:47;9.50;99.90
5735;DHT22;2892;47.592;7.688;2024-01-25T07:53:12;9.60;99.90
5735;DHT22;2892;47.592;7.688;2024-01-25T07:55:38;9.50;99.90
5735;DHT22;2892;47.592;7.688;2024-01-25T07:58:03;9.50;99.90
5735;DHT22;2892;47.592;7.688;2024-01-25T08:00:29;9.50;99.90
5735;DHT22;2892;47.592;7.688;2024-01-25T08:02:54;9.50;99.90
5735;DHT22;2892;47.592;7.688;2024-01-25T08:05:20;9.50;99.90
5735;DHT22;2892;47.592;7.688;2024-01-25T08:07:45;9.50;99.90
5735;DHT22;2892;47.592;7.688;2024-01-25T08:10:11;9.50;99.90
5735;DHT22;2892;47.592;7.688;2024-01-25T08:12:36;9.50;99.90
5735;DHT22;2892;47.592;7.688;2024-01-25T08:15:02;9.40;99.90
5735;DHT22;2892;47.592;7.688;2024-01-25T08:17:27;9.40;99.90
5735;DHT22;2892;47.592;7.688;2024-01-25T08:19:53;9.40;99.90
5735;DHT22;2892;47.592;7.688;2024-01-25T08:22:18;9.40;99.90
5735;DHT22;2892;47.592;7.688;2024-01-25T08:24:44;9.40;99.90
5735;DHT22;2892;47.592;7.688;2024-01-25T08:27:09;9.40;99.90
5735;DHT22;2892;47.592;7.688;2024-01-25T08:29:35;9.40;99.90
5735;DHT22;2892;47.592;7.688;2024-01-25T08:32:00;9.40;99.90
5735;DHT22;2892;47.592;7.688;2024-01-25T08:34:26;9.40;99.90
5735;DHT22;2892;47.592;7.688;2024-01-25T08:36:51;9.40;99.90
5735;DHT22;2892;47.592;7.688;2024-01-25T08:39:17;9.40;99.90
5735;DHT22;2892;47.592;7.688;2024-01-25T08:41:42;9.40;99.90
5735;DHT22;2892;47.592;7.688;2024-01-25T08:44:08;9.40;99.90
5735;DHT22;2892;47.592;7.688;2024-01-25T08:46:34;9.40;99.90
5735;DHT22;2892;47.592;7.688;2024-01-25T08:48:59;9.40;99.90
5735;DHT22;2892;47.592;7.688;2024-01-25T08:51:25;9.30;99.90
5735;DHT22;2892;47.592;7.688;2024-01-25T08:53:50;9.30;99.90
5735;DHT22;2892;47.592;7.688;2024-01-25T08:56:16;9.30;99.90
5735;DHT22;2892;47.592;7.688;2024-01-25T08:58:41;9.30;99.90
5735;DHT22;2892;47.592;7.688;2024-01-25T09:01:07;9.30;99.90
5735;DHT22;2892;47.592;7.688;2024-01-25T09:03:32;9.30;99.90
5735;DHT22;2892;47.592;7.688;2024-01-25T09:05:58;9.30;99.90
5735;DHT22;2892;47.592;7.688;2024-01-25T09:08:23;9.30;99.90
5735;DHT22;2892;47.592;7.688;2024-01-25T09:10:49;9.30;99.90
5735;DHT22;2892;47.592;7.688;2024-01-25T09:13:14;9.20;99.90
5735;DHT22;2892;47.592;7.688;2024-01-25T09:15:40;9.20;99.90
5735;DHT22;2892;47.592;7.688;2024-01-25T09:18:05;9.20;99.90
5735;DHT22;2892;47.592;7.688;2024-01-25T09:20:31;9.20;99.90
5735;DHT22;2892;47.592;7.688;2024-01-25T09:22:56;9.20;99.90
5735;DHT22;2892;47.592;7.688;2024-01-25T09:25:23;9.20;99.90
5735;DHT22;2892;47.592;7.688;2024-01-25T09:27:48;9.20;99.90
5735;DHT22;2892;47.592;7.688;2024-01-25T09:30:14;9.20;99.90
5735;DHT22;2892;47.592;7.688;2024-01-25T09:32:40;9.30;99.90
5735;DHT22;2892;47.592;7.688;2024-01-25T09:35:05;9.30;99.90
5735;DHT22;2892;47.592;7.688;2024-01-25T09:37:31;9.30;99.90
5735;DHT22;2892;47.592;7.688;2024-01-25T09:39:57;9.30;99.90
5735;DHT22;2892;47.592;7.688;2024-01-25T09:42:22;9.30;99.90
5735;DHT22;2892;47.592;7.688;2024-01-25T09:44:48;9.20;99.90
5735;DHT22;2892;47.592;7.688;2024-01-25T09:47:13;9.30;99.90
5735;DHT22;2892;47.592;7.688;2024-01-25T09:49:39;9.20;99.90
5735;DHT22;2892;47.592;7.688;2024-01-25T09:52:12;9.30;99.90
5735;DHT22;2892;47.592;7.688;2024-01-25T09:54:38;9.30;99.90
5735;DHT22;2892;47.592;7.688;2024-01-25T09:57:08;9.40;99.90
5735;DHT22;2892;47.592;7.688;2024-01-25T09:59:36;9.40;99.90
5735;DHT22;2892;47.592;7.688;2024-01-25T10:02:02;9.50;99.90
5735;DHT22;2892;47.592;7.688;2024-01-25T10:04:28;9.50;99.90
5735;DHT22;2892;47.592;7.688;2024-01-25T10:06:56;9.50;99.90
5735;DHT22;2892;47.592;7.688;2024-01-25T10:09:21;9.50;99.90
5735;DHT22;2892;47.592;7.688;2024-01-25T10:11:46;9.60;99.90
5735;DHT22;2892;47.592;7.688;2024-01-25T10:14:12;9.60;99.90
5735;DHT22;2892;47.592;7.688;2024-01-25T10:16:37;9.70;99.90
5735;DHT22;2892;47.592;7.688;2024-01-25T10:19:06;9.60;99.90
5735;DHT22;2892;47.592;7.688;2024-01-25T10:21:32;9.70;99.90
5735;DHT22;2892;47.592;7.688;2024-01-25T10:23:57;9.80;99.90
5735;DHT22;2892;47.592;7.688;2024-01-25T10:26:26;9.80;99.90
5735;DHT22;2892;47.592;7.688;2024-01-25T10:28:52;9.80;99.90
5735;DHT22;2892;47.592;7.688;2024-01-25T10:31:18;9.80;99.90
5735;DHT22;2892;47.592;7.688;2024-01-25T10:33:45;9.80;99.90
5735;DHT22;2892;47.592;7.688;2024-01-25T10:36:11;9.80;99.90
5735;DHT22;2892;47.592;7.688;2024-01-25T10:38:38;9.90;99.90
5735;DHT22;2892;47.592;7.688;2024-01-25T10:41:05;9.90;99.90
5735;DHT22;2892;47.592;7.688;2024-01-25T10:43:30;9.90;99.90
5735;DHT22;2892;47.592;7.688;2024-01-25T10:45:56;10.00;99.90
5735;DHT22;2892;47.592;7.688;2024-01-25T10:48:22;10.00;99.90
5735;DHT22;2892;47.592;7.688;2024-01-25T10:50:48;10.00;99.90
5735;DHT22;2892;47.592;7.688;2024-01-25T10:53:15;10.00;99.90
5735;DHT22;2892;47.592;7.688;2024-01-25T10:55:42;10.10;99.90
5735;DHT22;2892;47.592;7.688;2024-01-25T10:58:07;10.00;99.90
5735;DHT22;2892;47.592;7.688;2024-01-25T11:00:33;10.00;99.90
5735;DHT22;2892;47.592;7.688;2024-01-25T11:03:00;10.10;99.90
5735;DHT22;2892;47.592;7.688;2024-01-25T11:05:26;10.10;99.90
5735;DHT22;2892;47.592;7.688;2024-01-25T11:07:52;10.10;99.90
5735;DHT22;2892;47.592;7.688;2024-01-25T11:10:20;10.20;99.90
5735;DHT22;2892;47.592;7.688;2024-01-25T11:12:48;10.20;99.90
5735;DHT22;2892;47.592;7.688;2024-01-25T11:15:19;10.20;99.90
5735;DHT22;2892;47.592;7.688;2024-01-25T11:17:51;10.20;99.90
5735;DHT22;2892;47.592;7.688;2024-01-25T11:20:20;10.10;99.90
5735;DHT22;2892;47.592;7.688;2024-01-25T11:22:46;10.20;99.90
5735;DHT22;2892;47.592;7.688;2024-01-25T11:25:13;10.20;99.90
5735;DHT22;2892;47.592;7.688;2024-01-25T11:27:44;10.10;99.90
5735;DHT22;2892;47.592;7.688;2024-01-25T11:30:10;10.20;99.90
5735;DHT22;2892;47.592;7.688;2024-01-25T11:32:38;10.10;99.90
5735;DHT22;2892;47.592;7.688;2024-01-25T11:35:04;10.20;99.90
5735;DHT22;2892;47.592;7.688;2024-01-25T11:37:29;10.30;99.90
5735;DHT22;2892;47.592;7.688;2024-01-25T11:39:55;10.30;99.90
5735;DHT22;2892;47.592;7.688;2024-01-25T11:42:21;10.40;99.90
5735;DHT22;2892;47.592;7.688;2024-01-25T11:44:46;10.50;99.90
5735;DHT22;2892;47.592;7.688;2024-01-25T11:47:12;10.50;99.90
5735;DHT22;2892;47.592;7.688;2024-01-25T11:49:37;10.50;99.90
5735;DHT22;2892;47.592;7.688;2024-01-25T11:52:04;10.60;99.90
5735;DHT22;2892;47.592;7.688;2024-01-25T11:54:30;10.50;99.90
5735;DHT22;2892;47.592;7.688;2024-01-25T11:56:55;10.60;99.90
5735;DHT22;2892;47.592;7.688;2024-01-25T11:59:21;10.70;99.90
5735;DHT22;2892;47.592;7.688;2024-01-25T12:01:47;10.70;99.90
5735;DHT22;2892;47.592;7.688;2024-01-25T12:04:12;10.70;99.90
5735;DHT22;2892;47.592;7.688;2024-01-25T12:06:38;10.80;99.90
5735;DHT22;2892;47.592;7.688;2024-01-25T12:09:08;10.80;99.90
5735;DHT22;2892;47.592;7.688;2024-01-25T12:11:33;10.80;99.90
5735;DHT22;2892;47.592;7.688;2024-01-25T12:13:59;10.80;99.90
5735;DHT22;2892;47.592;7.688;2024-01-25T12:16:24;10.90;99.90
5735;DHT22;2892;47.592;7.688;2024-01-25T12:18:50;10.90;99.90
5735;DHT22;2892;47.592;7.688;2024-01-25T12:21:15;11.00;99.90
5735;DHT22;2892;47.592;7.688;2024-01-25T12:23:41;11.00;99.90
5735;DHT22;2892;47.592;7.688;2024-01-25T12:26:08;11.00;99.90
5735;DHT22;2892;47.592;7.688;2024-01-25T12:28:34;11.10;99.90
5735;DHT22;2892;47.592;7.688;2024-01-25T12:31:01;11.10;99.90
5735;DHT22;2892;47.592;7.688;2024-01-25T12:33:27;11.10;99.90
5735;DHT22;2892;47.592;7.688;2024-01-25T12:35:53;11.20;99.90
5735;DHT22;2892;47.592;7.688;2024-01-25T12:38:18;11.10;99.90
5735;DHT22;2892;47.592;7.688;2024-01-25T12:40:46;11.20;99.90
5735;DHT22;2892;47.592;7.688;2024-01-25T12:43:12;11.20;99.90
5735;DHT22;2892;47.592;7.688;2024-01-25T12:45:38;11.10;99.90
5735;DHT22;2892;47.592;7.688;2024-01-25T12:48:04;11.10;99.90
5735;DHT22;2892;47.592;7.688;2024-01-25T12:50:30;11.10;99.90
5735;DHT22;2892;47.592;7.688;2024-01-25T12:52:55;11.00;99.90
5735;DHT22;2892;47.592;7.688;2024-01-25T12:55:21;11.00;99.90
5735;DHT22;2892;47.592;7.688;2024-01-25T12:57:46;11.00;99.90
5735;DHT22;2892;47.592;7.688;2024-01-25T13:00:12;11.00;99.90
5735;DHT22;2892;47.592;7.688;2024-01-25T13:02:37;11.00;99.90
5735;DHT22;2892;47.592;7.688;2024-01-25T13:05:03;11.00;99.90
5735;DHT22;2892;47.592;7.688;2024-01-25T13:07:29;11.00;99.90
5735;DHT22;2892;47.592;7.688;2024-01-25T13:09:54;11.10;99.90
5735;DHT22;2892;47.592;7.688;2024-01-25T13:12:20;11.20;99.90
5735;DHT22;2892;47.592;7.688;2024-01-25T13:14:45;11.20;99.90
5735;DHT22;2892;47.592;7.688;2024-01-25T13:17:11;11.30;99.90
5735;DHT22;2892;47.592;7.688;2024-01-25T13:19:36;11.30;99.90
5735;DHT22;2892;47.592;7.688;2024-01-25T13:22:02;11.40;99.90
5735;DHT22;2892;47.592;7.688;2024-01-25T13:24:27;11.50;99.90
5735;DHT22;2892;47.592;7.688;2024-01-25T13:26:53;11.70;99.90
5735;DHT22;2892;47.592;7.688;2024-01-25T13:29:18;11.80;99.90
5735;DHT22;2892;47.592;7.688;2024-01-25T13:31:44;11.80;99.90
5735;DHT22;2892;47.592;7.688;2024-01-25T13:34:09;11.90;99.90
5735;DHT22;2892;47.592;7.688;2024-01-25T13:36:35;12.00;99.90
5735;DHT22;2892;47.592;7.688;2024-01-25T13:39:00;11.90;99.90
5735;DHT22;2892;47.592;7.688;2024-01-25T13:41:26;11.90;99.90
5735;DHT22;2892;47.592;7.688;2024-01-25T13:43:52;11.80;99.90
5735;DHT22;2892;47.592;7.688;2024-01-25T13:46:18;11.80;99.90
5735;DHT22;2892;47.592;7.688;2024-01-25T13:48:43;11.90;99.90
5735;DHT22;2892;47.592;7.688;2024-01-25T13:51:09;11.90;99.90
5735;DHT22;2892;47.592;7.688;2024-01-25T13:53:34;11.80;99.90
5735;DHT22;2892;47.592;7.688;2024-01-25T13:55:59;11.90;99.90
5735;DHT22;2892;47.592;7.688;2024-01-25T13:58:25;11.90;99.90
5735;DHT22;2892;47.592;7.688;2024-01-25T14:00:50;11.90;99.90
5735;DHT22;2892;47.592;7.688;2024-01-25T14:03:16;11.90;99.90
5735;DHT22;2892;47.592;7.688;2024-01-25T14:05:41;11.90;99.90
5735;DHT22;2892;47.592;7.688;2024-01-25T14:08:07;11.90;99.90
5735;DHT22;2892;47.592;7.688;2024-01-25T14:10:32;12.00;99.90
5735;DHT22;2892;47.592;7.688;2024-01-25T14:12:58;12.00;99.90
5735;DHT22;2892;47.592;7.688;2024-01-25T14:15:23;12.10;99.90
5735;DHT22;2892;47.592;7.688;2024-01-25T14:17:49;12.20;99.90
5735;DHT22;2892;47.592;7.688;2024-01-25T14:20:14;12.20;99.90
5735;DHT22;2892;47.592;7.688;2024-01-25T14:22:40;12.20;99.90
5735;DHT22;2892;47.592;7.688;2024-01-25T14:25:06;12.20;99.90
5735;DHT22;2892;47.592;7.688;2024-01-25T14:27:31;12.20;99.90
5735;DHT22;2892;47.592;7.688;2024-01-25T14:29:57;12.20;99.90
5735;DHT22;2892;47.592;7.688;2024-01-25T14:32:22;12.20;99.90
5735;DHT22;2892;47.592;7.688;2024-01-25T14:34:47;12.20;99.90
5735;DHT22;2892;47.592;7.688;2024-01-25T14:37:13;12.20;99.90
5735;DHT22;2892;47.592;7.688;2024-01-25T14:39:38;12.20;99.90
5735;DHT22;2892;47.592;7.688;2024-01-25T14:42:09;12.10;99.90
5735;DHT22;2892;47.592;7.688;2024-01-25T14:44:35;12.10;99.90
5735;DHT22;2892;47.592;7.688;2024-01-25T14:47:00;12.00;99.90
5735;DHT22;2892;47.592;7.688;2024-01-25T14:49:26;12.00;99.90
5735;DHT22;2892;47.592;7.688;2024-01-25T14:51:51;11.90;99.90
5735;DHT22;2892;47.592;7.688;2024-01-25T14:54:17;11.90;99.90
5735;DHT22;2892;47.592;7.688;2024-01-25T14:56:42;11.90;99.90
5735;DHT22;2892;47.592;7.688;2024-01-25T14:59:08;11.80;99.90
5735;DHT22;2892;47.592;7.688;2024-01-25T15:01:34;11.80;99.90
5735;DHT22;2892;47.592;7.688;2024-01-25T15:04:00;11.80;99.90
5735;DHT22;2892;47.592;7.688;2024-01-25T15:06:25;11.80;99.90
5735;DHT22;2892;47.592;7.688;2024-01-25T15:08:51;11.80;99.90
5735;DHT22;2892;47.592;7.688;2024-01-25T15:11:16;11.80;99.90
5735;DHT22;2892;47.592;7.688;2024-01-25T15:13:42;11.70;99.90
5735;DHT22;2892;47.592;7.688;2024-01-25T15:16:07;11.70;99.90
5735;DHT22;2892;47.592;7.688;2024-01-25T15:18:33;11.70;99.90
5735;DHT22;2892;47.592;7.688;2024-01-25T15:20:58;11.60;99.90
5735;DHT22;2892;47.592;7.688;2024-01-25T15:23:24;11.70;99.90
5735;DHT22;2892;47.592;7.688;2024-01-25T15:25:49;11.60;99.90
5735;DHT22;2892;47.592;7.688;2024-01-25T15:28:14;11.60;99.90
5735;DHT22;2892;47.592;7.688;2024-01-25T15:30:40;11.60;99.90
5735;DHT22;2892;47.592;7.688;2024-01-25T15:33:06;11.60;99.90
5735;DHT22;2892;47.592;7.688;2024-01-25T15:35:31;11.60;99.90
5735;DHT22;2892;47.592;7.688;2024-01-25T15:37:57;11.60;99.90
5735;DHT22;2892;47.592;7.688;2024-01-25T15:40:22;11.50;99.90
5735;DHT22;2892;47.592;7.688;2024-01-25T15:42:48;11.50;99.90
5735;DHT22;2892;47.592;7.688;2024-01-25T15:45:13;11.40;99.90
5735;DHT22;2892;47.592;7.688;2024-01-25T15:47:39;11.40;99.90
5735;DHT22;2892;47.592;7.688;2024-01-25T15:50:04;11.20;99.90
5735;DHT22;2892;47.592;7.688;2024-01-25T15:52:31;11.30;99.90
5735;DHT22;2892;47.592;7.688;2024-01-25T15:54:57;11.40;99.90
5735;DHT22;2892;47.592;7.688;2024-01-25T15:57:22;11.40;99.90